Bixby, Oklahoma
Current Conditions -  °F | °C
As of 2:53 PM on Sunday 23 Nov 2014 (Local Time) from KRVS Reporting Station
Overcast Overcast  
Wind Chill: 65°   Ceiling: 3300
Heat Index: 65°   Visibility: 10mi
Dew Point: 53°   Wind: 3mph
Humidity: 65%   Direction: 230°SW
Pressure: 29.29"   Gusts: NA
Location:  35.94°N, 95.88°W
Report Text: KRVS 232053Z 23003KT 10SM BKN033 BKN042 OVC060 18/12 A2929 RMK AO2 SLP924 T01830117 56020
Loading
Personal Weather Stations






























Interactive Weather Map New forecast layout! Learn more

10-Day Weather Forecast

Advertisements
Track Severe Weather on mobile